createdAt,value
2022-12-31T00:02:55.141Z,962.52
2022-12-31T00:07:56.994Z,962.53
2022-12-31T00:12:59.128Z,962.43
2022-12-31T00:18:00.950Z,962.39
2022-12-31T00:23:03.145Z,962.39
2022-12-31T00:28:05.097Z,962.3
2022-12-31T00:33:06.458Z,962.34
2022-12-31T00:38:07.844Z,962.37
2022-12-31T00:43:09.322Z,962.41
2022-12-31T00:48:11.268Z,962.47
2022-12-31T00:53:12.746Z,962.63
2022-12-31T00:58:14.728Z,962.71
2022-12-31T01:03:16.509Z,962.74
2022-12-31T01:08:18.383Z,962.73
2022-12-31T01:13:23.971Z,962.82
2022-12-31T01:18:32.339Z,962.96
2022-12-31T01:23:24.156Z,963
2022-12-31T01:28:25.860Z,963.07
2022-12-31T01:33:27.402Z,963.18
2022-12-31T01:38:29.126Z,963.29
2022-12-31T01:43:31.021Z,963.31
2022-12-31T01:48:32.928Z,963.36
2022-12-31T01:53:34.628Z,963.32
2022-12-31T01:58:35.767Z,963.41
2022-12-31T02:03:36.972Z,963.28
2022-12-31T02:08:42.085Z,963.33
2022-12-31T02:13:40.974Z,963.28
2022-12-31T02:18:42.993Z,963.25
2022-12-31T02:23:44.810Z,963.33
2022-12-31T02:28:55.665Z,963.27
2022-12-31T02:33:48.643Z,963.18
2022-12-31T02:38:50.093Z,963.3
2022-12-31T02:43:51.440Z,963.39
2022-12-31T02:48:53.627Z,963.39
2022-12-31T02:53:55.583Z,963.41
2022-12-31T02:58:57.004Z,963.38
2022-12-31T03:03:58.742Z,963.42
2022-12-31T03:09:00.441Z,963.43
2022-12-31T03:14:02.015Z,963.49
2022-12-31T03:19:03.381Z,963.5
2022-12-31T03:24:05.629Z,963.55
2022-12-31T03:29:06.850Z,963.58
2022-12-31T03:34:08.187Z,963.55
2022-12-31T03:39:09.912Z,963.62
2022-12-31T03:44:12.116Z,963.85
2022-12-31T03:49:13.299Z,963.78
2022-12-31T03:54:14.643Z,963.83
2022-12-31T03:59:16.605Z,963.82
2022-12-31T04:04:18.751Z,963.82
2022-12-31T04:09:20.274Z,963.94
2022-12-31T04:14:22.221Z,963.92
2022-12-31T04:19:23.793Z,963.99
2022-12-31T04:24:25.340Z,963.96
2022-12-31T04:29:27.193Z,963.96
2022-12-31T04:34:29.330Z,964.1
2022-12-31T04:39:31.027Z,963.94
2022-12-31T04:44:32.923Z,964.05
2022-12-31T04:49:34.990Z,964.04
2022-12-31T04:54:36.988Z,964.07
2022-12-31T04:59:38.725Z,964.04
2022-12-31T05:04:40.366Z,964.12
2022-12-31T05:09:41.781Z,964.25
2022-12-31T05:14:43.476Z,964.23
2022-12-31T05:19:44.946Z,964.29
2022-12-31T05:24:46.576Z,964.3
2022-12-31T05:29:48.540Z,964.39
2022-12-31T05:34:50.185Z,964.34
2022-12-31T05:39:52.121Z,964.35
2022-12-31T05:44:54.024Z,964.37
2022-12-31T05:49:55.423Z,964.44
2022-12-31T05:54:57.240Z,964.42
2022-12-31T05:59:59.142Z,964.49
2022-12-31T06:05:00.755Z,964.54
2022-12-31T06:10:02.314Z,964.59
2022-12-31T06:15:04.468Z,964.56
2022-12-31T06:20:10.590Z,964.64
2022-12-31T06:25:07.712Z,964.73
2022-12-31T06:30:09.780Z,964.79
2022-12-31T06:35:11.638Z,964.71
2022-12-31T06:40:13.520Z,964.76
2022-12-31T06:45:14.913Z,964.71
2022-12-31T06:50:16.439Z,964.72
2022-12-31T06:55:18.421Z,964.78
2022-12-31T07:00:19.638Z,964.89
2022-12-31T07:05:21.381Z,964.89
2022-12-31T07:10:27.404Z,965
2022-12-31T07:15:24.037Z,965.09
2022-12-31T07:20:26.105Z,965.12
2022-12-31T07:25:27.814Z,965.14
2022-12-31T07:30:29.787Z,965.18
2022-12-31T08:40:51.862Z,965.66
2022-12-31T08:45:53.114Z,965.69
2022-12-31T08:50:54.815Z,965.7
2022-12-31T08:55:56.224Z,965.72
2022-12-31T09:05:59.544Z,965.7
2022-12-31T09:11:00.886Z,965.75
2022-12-31T09:16:02.587Z,965.8
2022-12-31T09:21:03.892Z,965.87
2022-12-31T09:26:05.845Z,965.91
2022-12-31T09:31:07.152Z,965.85
2022-12-31T09:36:08.327Z,965.77
2022-12-31T09:41:09.777Z,965.7
2022-12-31T09:46:11.427Z,965.69
2022-12-31T09:51:13.216Z,965.71
2022-12-31T09:56:14.992Z,965.72
2022-12-31T10:01:16.406Z,965.75
2022-12-31T10:06:18.359Z,965.72
2022-12-31T10:11:19.832Z,965.65
2022-12-31T10:16:21.621Z,965.6
2022-12-31T10:21:23.486Z,965.58
2022-12-31T10:26:24.725Z,965.51
2022-12-31T10:31:25.849Z,965.45
2022-12-31T10:36:27.241Z,965.49
2022-12-31T10:41:29.006Z,965.49
2022-12-31T10:46:30.560Z,965.48
2022-12-31T10:51:32.509Z,965.53
2022-12-31T10:56:34.293Z,965.52
2022-12-31T11:01:36.388Z,965.54
2022-12-31T11:06:38.395Z,965.46
2022-12-31T11:11:40.630Z,965.41
2022-12-31T11:16:42.492Z,965.48
2022-12-31T11:21:44.126Z,965.51
2022-12-31T11:26:46.171Z,965.53
2022-12-31T11:31:47.937Z,965.42
2022-12-31T11:36:50.002Z,965.3
2022-12-31T11:41:51.830Z,965.29
2022-12-31T11:46:53.175Z,965.22
2022-12-31T11:51:54.658Z,965.26
2022-12-31T11:56:56.202Z,965.22
2022-12-31T12:01:58.171Z,965.09
2022-12-31T12:06:59.683Z,965.11
2022-12-31T12:12:01.594Z,965.13
2022-12-31T12:17:05.351Z,965.09
2022-12-31T12:22:04.701Z,965.09
2022-12-31T12:27:06.106Z,965.05
2022-12-31T12:32:07.676Z,965.01
2022-12-31T12:37:08.948Z,964.98
2022-12-31T12:42:10.805Z,965
2022-12-31T12:47:18.917Z,965
2022-12-31T12:52:20.242Z,965.03
2022-12-31T12:57:22.411Z,964.97
2022-12-31T13:02:23.841Z,964.99
2022-12-31T13:07:25.179Z,964.99
2022-12-31T13:12:27.319Z,964.95
2022-12-31T13:17:28.556Z,964.91
2022-12-31T13:22:30.039Z,964.82
2022-12-31T13:27:31.769Z,964.76
2022-12-31T13:32:33.569Z,964.73
2022-12-31T13:37:35.057Z,964.8
2022-12-31T13:42:36.459Z,964.84
2022-12-31T13:47:38.275Z,964.72
2022-12-31T13:52:40.028Z,964.73
2022-12-31T13:57:41.776Z,964.79
2022-12-31T14:02:43.516Z,964.78
2022-12-31T14:07:45.856Z,964.87
2022-12-31T14:12:46.840Z,964.88
2022-12-31T14:17:48.156Z,964.96
2022-12-31T14:22:49.633Z,965.03
2022-12-31T14:27:51.777Z,965.05
2022-12-31T14:32:53.622Z,965.17
2022-12-31T14:37:54.966Z,965.21
2022-12-31T14:42:57.092Z,965.26
2022-12-31T14:47:59.085Z,965.34
2022-12-31T14:53:00.857Z,965.36
2022-12-31T14:58:26.823Z,965.31
2022-12-31T15:03:03.529Z,965.31
2022-12-31T15:08:05.430Z,965.23
2022-12-31T15:13:07.654Z,965.25
2022-12-31T15:18:09.502Z,965.3
2022-12-31T15:23:11.442Z,965.3
2022-12-31T15:28:13.488Z,965.2
2022-12-31T15:33:15.275Z,965.26
2022-12-31T15:38:16.381Z,965.36
2022-12-31T15:43:18.051Z,965.37
2022-12-31T15:48:19.676Z,965.38
2022-12-31T15:53:21.345Z,965.36
2022-12-31T15:58:23.498Z,965.36
2022-12-31T16:03:25.248Z,965.36
2022-12-31T16:08:26.974Z,965.34
2022-12-31T16:13:28.252Z,965.37
2022-12-31T16:18:29.810Z,965.48
2022-12-31T16:23:31.215Z,965.49
2022-12-31T16:28:32.885Z,965.45
2022-12-31T16:33:35.050Z,965.5
2022-12-31T16:38:36.515Z,965.52
2022-12-31T16:43:38.181Z,965.48
2022-12-31T16:48:39.685Z,965.42
2022-12-31T16:53:40.959Z,965.42
2022-12-31T16:58:42.190Z,965.37
2022-12-31T17:03:43.431Z,965.45
2022-12-31T17:08:45.052Z,965.5
2022-12-31T17:13:47.050Z,965.46
2022-12-31T17:18:48.775Z,965.41
2022-12-31T17:23:50.417Z,965.43
2022-12-31T17:28:52.389Z,965.39
2022-12-31T17:33:53.944Z,965.38
2022-12-31T17:38:55.946Z,965.39
2022-12-31T17:43:58.134Z,965.37
2022-12-31T17:48:59.937Z,965.35
2022-12-31T17:54:01.798Z,965.39
2022-12-31T17:59:03.779Z,965.43
2022-12-31T18:04:05.252Z,965.34
2022-12-31T18:09:06.437Z,965.31
2022-12-31T18:14:07.850Z,965.36
2022-12-31T18:19:14.056Z,965.4
2022-12-31T18:24:10.415Z,965.38
2022-12-31T18:29:11.900Z,965.33
2022-12-31T18:34:13.505Z,965.39
2022-12-31T18:39:15.416Z,965.55
2022-12-31T18:44:16.751Z,965.61
2022-12-31T18:49:18.702Z,965.77
2022-12-31T18:54:20.432Z,965.83
2022-12-31T18:59:21.884Z,965.91
2022-12-31T19:04:27.809Z,965.89
2022-12-31T19:09:44.475Z,966.01
2022-12-31T19:14:26.356Z,966.06
2022-12-31T19:19:28.194Z,966.06
2022-12-31T19:24:29.815Z,966.06
2022-12-31T19:29:31.714Z,966.04
2022-12-31T19:34:33.287Z,966.12
2022-12-31T19:39:35.104Z,966.14
2022-12-31T19:44:36.655Z,966.21
2022-12-31T19:49:37.995Z,966.26
2022-12-31T19:54:39.957Z,966.38
2022-12-31T19:59:41.929Z,966.24
2022-12-31T20:04:43.054Z,966.23
2022-12-31T20:09:44.547Z,966.34
2022-12-31T20:14:46.550Z,966.44
2022-12-31T20:19:48.134Z,966.49
2022-12-31T20:24:50.038Z,966.46
2022-12-31T20:29:51.819Z,966.35
2022-12-31T20:34:52.948Z,966.39
2022-12-31T20:39:54.453Z,966.4
2022-12-31T20:44:56.645Z,966.57
2022-12-31T20:50:11.344Z,966.61
2022-12-31T20:54:59.746Z,966.48
2022-12-31T21:00:01.813Z,966.44
2022-12-31T21:05:03.742Z,966.32
2022-12-31T21:10:05.579Z,966.32
2022-12-31T21:15:07.723Z,966.36
2022-12-31T21:20:09.558Z,966.28
2022-12-31T21:25:11.330Z,966.31
2022-12-31T21:30:18.660Z,966.37
2022-12-31T21:35:41.542Z,966.4
2022-12-31T21:40:16.579Z,966.4
2022-12-31T21:45:18.006Z,966.5
2022-12-31T21:50:19.688Z,966.42
2022-12-31T21:55:21.696Z,966.46
2022-12-31T22:00:41.498Z,966.49
2022-12-31T22:05:25.481Z,966.47
2022-12-31T22:10:27.177Z,966.47
2022-12-31T22:15:28.638Z,966.52
2022-12-31T22:25:32.108Z,966.59
2022-12-31T22:55:42.685Z,966.52
2022-12-31T23:30:54.985Z,966.41
2022-12-31T23:35:56.437Z,966.36
2022-12-31T23:40:57.996Z,966.44
2022-12-31T23:46:00.314Z,966.48
2022-12-31T23:51:02.129Z,966.47
2022-12-31T23:56:09.545Z,966.52
